Holiday Island, Arkansas
Current Conditions -  °F | °C
As of 5:57 PM on Monday 20 Oct 2014 (Local Time) from KROG Reporting Station
Clear Clear  
Wind Chill: 67°   Ceiling: Unl
Heat Index: 67°   Visibility: 10mi
Dew Point: 58°   Wind: 5mph
Humidity: 73%   Direction: 230°SW
Pressure: 30.05"   Gusts: NA
Location:  36.4778°N, 93.7346°W
Report Text: KROG 202257Z 23004KT 10SM CLR 19/14 A3005 RMK AO2 SLP170 T01940144
Loading
Personal Weather Stations






























Interactive Weather Map
Tropical Storm Tracking
New forecast layout! Learn more

10-Day Weather Forecast

Advertisements
Track Severe Weather on mobile